sensor_id;sensor_type;location;lat;lon;timestamp;P1;durP1;ratioP1;P2;durP2;ratioP2
2201;SDS011;1107;48.654;9.250;2023-03-15T06:35:58;7.97;;;2.40;;
2201;SDS011;1107;48.654;9.250;2023-03-15T08:19:04;3.03;;;2.73;;
2201;SDS011;1107;48.654;9.250;2023-03-15T08:46:02;3.60;;;2.50;;
2201;SDS011;1107;48.654;9.250;2023-03-15T08:48:29;2.83;;;2.63;;
2201;SDS011;1107;48.654;9.250;2023-03-15T08:51:00;5.27;;;2.73;;
2201;SDS011;1107;48.654;9.250;2023-03-15T08:53:28;3.83;;;2.20;;
2201;SDS011;1107;48.654;9.250;2023-03-15T08:55:55;2.53;;;2.00;;
2201;SDS011;1107;48.654;9.250;2023-03-15T08:58:22;4.03;;;2.13;;
2201;SDS011;1107;48.654;9.250;2023-03-15T09:00:49;3.57;;;1.63;;
2201;SDS011;1107;48.654;9.250;2023-03-15T09:03:18;1.93;;;1.83;;
2201;SDS011;1107;48.654;9.250;2023-03-15T09:05:47;2.90;;;2.60;;
2201;SDS011;1107;48.654;9.250;2023-03-15T09:08:14;2.57;;;2.00;;
2201;SDS011;1107;48.654;9.250;2023-03-15T09:25:27;3.50;;;1.80;;
2201;SDS011;1107;48.654;9.250;2023-03-15T09:27:54;2.23;;;2.13;;
2201;SDS011;1107;48.654;9.250;2023-03-15T09:30:21;2.23;;;1.97;;
2201;SDS011;1107;48.654;9.250;2023-03-15T09:32:48;3.00;;;2.13;;
2201;SDS011;1107;48.654;9.250;2023-03-15T09:37:45;3.93;;;2.03;;
2201;SDS011;1107;48.654;9.250;2023-03-15T09:40:14;5.03;;;1.80;;
2201;SDS011;1107;48.654;9.250;2023-03-15T09:42:52;2.70;;;1.83;;
2201;SDS011;1107;48.654;9.250;2023-03-15T09:45:26;2.10;;;1.90;;
2201;SDS011;1107;48.654;9.250;2023-03-15T09:50:30;2.57;;;2.10;;
2201;SDS011;1107;48.654;9.250;2023-03-15T09:53:05;2.65;;;1.65;;
2201;SDS011;1107;48.654;9.250;2023-03-15T09:55:37;4.15;;;1.85;;
2201;SDS011;1107;48.654;9.250;2023-03-15T09:58:08;1.90;;;1.63;;
2201;SDS011;1107;48.654;9.250;2023-03-15T10:00:39;6.93;;;2.50;;
2201;SDS011;1107;48.654;9.250;2023-03-15T10:03:11;2.20;;;2.00;;
2201;SDS011;1107;48.654;9.250;2023-03-15T10:05:46;1.60;;;1.30;;
2201;SDS011;1107;48.654;9.250;2023-03-15T10:08:18;3.55;;;1.42;;
2201;SDS011;1107;48.654;9.250;2023-03-15T10:10:48;3.78;;;2.65;;
2201;SDS011;1107;48.654;9.250;2023-03-15T10:13:23;2.03;;;1.80;;
2201;SDS011;1107;48.654;9.250;2023-03-15T10:16:01;2.50;;;1.75;;
2201;SDS011;1107;48.654;9.250;2023-03-15T10:18:46;3.55;;;2.92;;
2201;SDS011;1107;48.654;9.250;2023-03-15T10:21:24;12.20;;;1.93;;
2201;SDS011;1107;48.654;9.250;2023-03-15T10:23:58;3.05;;;1.25;;
2201;SDS011;1107;48.654;9.250;2023-03-15T10:26:30;4.95;;;3.13;;
2201;SDS011;1107;48.654;9.250;2023-03-15T10:29:02;2.55;;;1.92;;
2201;SDS011;1107;48.654;9.250;2023-03-15T10:31:37;5.15;;;2.13;;
2201;SDS011;1107;48.654;9.250;2023-03-15T10:34:07;3.55;;;1.58;;
2201;SDS011;1107;48.654;9.250;2023-03-15T10:36:35;2.00;;;1.80;;
2201;SDS011;1107;48.654;9.250;2023-03-15T10:39:03;2.35;;;1.73;;
2201;SDS011;1107;48.654;9.250;2023-03-15T10:41:35;2.80;;;1.60;;
2201;SDS011;1107;48.654;9.250;2023-03-15T10:44:04;1.88;;;1.52;;
2201;SDS011;1107;48.654;9.250;2023-03-15T10:46:32;2.00;;;1.63;;
2201;SDS011;1107;48.654;9.250;2023-03-15T10:49:07;2.80;;;1.40;;
2201;SDS011;1107;48.654;9.250;2023-03-15T10:51:37;3.03;;;2.10;;
2201;SDS011;1107;48.654;9.250;2023-03-15T10:54:10;1.95;;;1.13;;
2201;SDS011;1107;48.654;9.250;2023-03-15T10:56:43;1.90;;;1.73;;
2201;SDS011;1107;48.654;9.250;2023-03-15T10:59:16;5.20;;;1.47;;
2201;SDS011;1107;48.654;9.250;2023-03-15T11:01:45;4.00;;;2.17;;
2201;SDS011;1107;48.654;9.250;2023-03-15T11:04:15;2.67;;;1.80;;
2201;SDS011;1107;48.654;9.250;2023-03-15T11:06:45;3.43;;;1.80;;
2201;SDS011;1107;48.654;9.250;2023-03-15T11:09:16;2.50;;;1.97;;
2201;SDS011;1107;48.654;9.250;2023-03-15T11:11:53;2.00;;;1.60;;
2201;SDS011;1107;48.654;9.250;2023-03-15T11:14:23;1.97;;;1.77;;
2201;SDS011;1107;48.654;9.250;2023-03-15T11:16:51;1.73;;;1.50;;
2201;SDS011;1107;48.654;9.250;2023-03-15T11:19:21;4.27;;;1.93;;
2201;SDS011;1107;48.654;9.250;2023-03-15T11:21:52;2.33;;;1.03;;
2201;SDS011;1107;48.654;9.250;2023-03-15T11:24:23;1.50;;;1.10;;
2201;SDS011;1107;48.654;9.250;2023-03-15T11:26:52;2.60;;;1.40;;
2201;SDS011;1107;48.654;9.250;2023-03-15T11:29:22;3.20;;;1.47;;
2201;SDS011;1107;48.654;9.250;2023-03-15T11:31:52;6.97;;;1.20;;
2201;SDS011;1107;48.654;9.250;2023-03-15T11:34:22;2.70;;;1.33;;
2201;SDS011;1107;48.654;9.250;2023-03-15T11:36:53;2.00;;;1.50;;
2201;SDS011;1107;48.654;9.250;2023-03-15T11:39:28;1.70;;;1.43;;
2201;SDS011;1107;48.654;9.250;2023-03-15T11:42:01;2.20;;;1.40;;
2201;SDS011;1107;48.654;9.250;2023-03-15T11:44:36;1.93;;;1.57;;
2201;SDS011;1107;48.654;9.250;2023-03-15T11:47:07;6.90;;;2.73;;
2201;SDS011;1107;48.654;9.250;2023-03-15T11:49:40;2.00;;;1.07;;
2201;SDS011;1107;48.654;9.250;2023-03-15T11:52:13;7.93;;;1.27;;
2201;SDS011;1107;48.654;9.250;2023-03-15T11:54:42;1.50;;;0.90;;
2201;SDS011;1107;48.654;9.250;2023-03-15T12:00:15;4.90;;;1.50;;
2201;SDS011;1107;48.654;9.250;2023-03-15T12:02:50;2.72;;;1.20;;
2201;SDS011;1107;48.654;9.250;2023-03-15T12:13:24;2.35;;;0.90;;
2201;SDS011;1107;48.654;9.250;2023-03-15T12:15:52;3.15;;;1.25;;
2201;SDS011;1107;48.654;9.250;2023-03-15T12:18:30;2.50;;;1.40;;
2201;SDS011;1107;48.654;9.250;2023-03-15T12:21:09;2.30;;;1.10;;
2201;SDS011;1107;48.654;9.250;2023-03-15T12:23:42;2.17;;;1.10;;
2201;SDS011;1107;48.654;9.250;2023-03-15T12:26:23;2.42;;;1.90;;
2201;SDS011;1107;48.654;9.250;2023-03-15T12:29:00;2.03;;;1.42;;
2201;SDS011;1107;48.654;9.250;2023-03-15T12:31:50;3.60;;;1.70;;
2201;SDS011;1107;48.654;9.250;2023-03-15T12:34:24;5.13;;;1.10;;
2201;SDS011;1107;48.654;9.250;2023-03-15T12:36:54;2.20;;;1.00;;
2201;SDS011;1107;48.654;9.250;2023-03-15T12:45:35;1.70;;;1.33;;
2201;SDS011;1107;48.654;9.250;2023-03-15T12:48:23;2.50;;;1.23;;
2201;SDS011;1107;48.654;9.250;2023-03-15T12:50:53;3.10;;;1.80;;
2201;SDS011;1107;48.654;9.250;2023-03-15T12:53:35;8.33;;;1.40;;
2201;SDS011;1107;48.654;9.250;2023-03-15T12:59:18;2.40;;;1.67;;
2201;SDS011;1107;48.654;9.250;2023-03-15T13:02:02;2.00;;;1.10;;
2201;SDS011;1107;48.654;9.250;2023-03-15T13:04:44;5.73;;;2.23;;
2201;SDS011;1107;48.654;9.250;2023-03-15T13:07:17;2.97;;;2.17;;
2201;SDS011;1107;48.654;9.250;2023-03-15T13:09:59;1.97;;;1.77;;
2201;SDS011;1107;48.654;9.250;2023-03-15T13:12:46;3.60;;;2.07;;
2201;SDS011;1107;48.654;9.250;2023-03-15T13:15:20;1.80;;;1.37;;
2201;SDS011;1107;48.654;9.250;2023-03-15T13:17:55;1.67;;;1.00;;
2201;SDS011;1107;48.654;9.250;2023-03-15T13:20:35;2.07;;;1.10;;
2201;SDS011;1107;48.654;9.250;2023-03-15T13:23:12;8.00;;;1.30;;
2201;SDS011;1107;48.654;9.250;2023-03-15T13:25:45;1.60;;;1.43;;
2201;SDS011;1107;48.654;9.250;2023-03-15T13:28:20;1.80;;;1.50;;
2201;SDS011;1107;48.654;9.250;2023-03-15T13:30:50;1.40;;;1.00;;
2201;SDS011;1107;48.654;9.250;2023-03-15T13:33:20;2.63;;;1.10;;
2201;SDS011;1107;48.654;9.250;2023-03-15T13:35:54;3.38;;;1.70;;
2201;SDS011;1107;48.654;9.250;2023-03-15T13:38:26;1.80;;;1.30;;
2201;SDS011;1107;48.654;9.250;2023-03-15T13:40:56;1.60;;;1.42;;
2201;SDS011;1107;48.654;9.250;2023-03-15T13:43:24;2.13;;;1.90;;
2201;SDS011;1107;48.654;9.250;2023-03-15T13:45:55;2.33;;;1.57;;
2201;SDS011;1107;48.654;9.250;2023-03-15T13:48:26;2.03;;;1.83;;
2201;SDS011;1107;48.654;9.250;2023-03-15T13:50:54;1.63;;;1.25;;
2201;SDS011;1107;48.654;9.250;2023-03-15T13:53:24;1.50;;;1.30;;
2201;SDS011;1107;48.654;9.250;2023-03-15T13:55:52;2.25;;;1.20;;
2201;SDS011;1107;48.654;9.250;2023-03-15T13:58:20;4.50;;;3.20;;
2201;SDS011;1107;48.654;9.250;2023-03-15T14:00:48;2.63;;;1.63;;
2201;SDS011;1107;48.654;9.250;2023-03-15T14:03:23;1.93;;;1.70;;
2201;SDS011;1107;48.654;9.250;2023-03-15T14:05:52;4.90;;;1.55;;
2201;SDS011;1107;48.654;9.250;2023-03-15T14:08:21;6.07;;;1.60;;
2201;SDS011;1107;48.654;9.250;2023-03-15T14:11:01;4.07;;;2.05;;
2201;SDS011;1107;48.654;9.250;2023-03-15T14:13:31;4.03;;;1.83;;
2201;SDS011;1107;48.654;9.250;2023-03-15T14:16:00;2.00;;;1.48;;
2201;SDS011;1107;48.654;9.250;2023-03-15T14:18:30;2.15;;;1.60;;
2201;SDS011;1107;48.654;9.250;2023-03-15T14:21:01;1.73;;;1.63;;
2201;SDS011;1107;48.654;9.250;2023-03-15T14:23:33;2.47;;;2.28;;
2201;SDS011;1107;48.654;9.250;2023-03-15T14:26:09;2.30;;;1.80;;
2201;SDS011;1107;48.654;9.250;2023-03-15T14:28:39;1.92;;;1.60;;
2201;SDS011;1107;48.654;9.250;2023-03-15T14:31:11;2.23;;;2.03;;
2201;SDS011;1107;48.654;9.250;2023-03-15T14:33:50;1.60;;;1.33;;
2201;SDS011;1107;48.654;9.250;2023-03-15T14:36:22;4.03;;;2.00;;
2201;SDS011;1107;48.654;9.250;2023-03-15T14:38:51;3.57;;;1.23;;
2201;SDS011;1107;48.654;9.250;2023-03-15T14:41:23;2.60;;;2.40;;
2201;SDS011;1107;48.654;9.250;2023-03-15T14:43:57;8.20;;;7.20;;
2201;SDS011;1107;48.654;9.250;2023-03-15T14:46:24;2.03;;;1.83;;
2201;SDS011;1107;48.654;9.250;2023-03-15T14:48:52;3.40;;;2.43;;
2201;SDS011;1107;48.654;9.250;2023-03-15T14:51:19;2.33;;;1.43;;
2201;SDS011;1107;48.654;9.250;2023-03-15T14:53:50;2.10;;;1.90;;
2201;SDS011;1107;48.654;9.250;2023-03-15T14:56:20;7.20;;;2.13;;
2201;SDS011;1107;48.654;9.250;2023-03-15T14:58:47;2.73;;;2.53;;
2201;SDS011;1107;48.654;9.250;2023-03-15T15:01:18;2.67;;;2.33;;
2201;SDS011;1107;48.654;9.250;2023-03-15T15:03:49;4.83;;;1.60;;
2201;SDS011;1107;48.654;9.250;2023-03-15T15:06:18;1.70;;;1.60;;
2201;SDS011;1107;48.654;9.250;2023-03-15T15:08:48;2.97;;;2.03;;
2201;SDS011;1107;48.654;9.250;2023-03-15T15:11:20;2.73;;;2.53;;
2201;SDS011;1107;48.654;9.250;2023-03-15T15:13:47;8.33;;;1.83;;
2201;SDS011;1107;48.654;9.250;2023-03-15T15:16:14;1.77;;;1.57;;
2201;SDS011;1107;48.654;9.250;2023-03-15T15:18:41;2.47;;;2.27;;
2201;SDS011;1107;48.654;9.250;2023-03-15T15:21:10;2.10;;;1.90;;
2201;SDS011;1107;48.654;9.250;2023-03-15T15:28:39;1.80;;;1.70;;
2201;SDS011;1107;48.654;9.250;2023-03-15T15:31:06;3.90;;;1.90;;
2201;SDS011;1107;48.654;9.250;2023-03-15T15:33:36;2.20;;;1.60;;
2201;SDS011;1107;48.654;9.250;2023-03-15T19:34:53;10.65;;;9.75;;
2201;SDS011;1107;48.654;9.250;2023-03-15T19:37:20;13.70;;;12.40;;
2201;SDS011;1107;48.654;9.250;2023-03-15T19:39:47;21.48;;;15.63;;
2201;SDS011;1107;48.654;9.250;2023-03-15T19:42:14;24.90;;;15.80;;
2201;SDS011;1107;48.654;9.250;2023-03-15T19:44:43;20.30;;;13.80;;
